ADDS METAR Data INFO
IDs: Format: Raw Decoded Include TAF

Data at: 0030 UTC 15 Dec 2017

KGRY 150020Z AUTO 03006KT 10SM CLR 21/16 A3001 RMK A01
KGRY 150000Z AUTO VRB03KT 10SM SCT038 SCT045 21/15 A3000 RMK A01
KGRY 142340Z AUTO VRB03KT 10SM BKN038 BKN047 21/16 A2999 RMK A01
KGRY 142320Z AUTO VRB04KT 10SM BKN050 23/14 A2999 RMK A01
KGRY 142300Z AUTO VRB06G12KT 10SM SCT050 23/14 A2999 RMK A01
KGRY 142240Z AUTO VRB03KT 10SM CLR 22/14 A2997 RMK A01
KGRY 142220Z AUTO VRB05G11KT 10SM CLR 23/14 A2998 RMK A01
KGRY 142200Z AUTO VRB05G13KT 10SM FEW035 23/13 A2997 RMK A01
KGRY 142140Z AUTO VRB05G12KT 10SM FEW038 FEW045 23/14 A2997 RMK A01
KGRY 142120Z AUTO 27009KT 230V290 10SM FEW037 FEW045 23/13 A2998 RMK A01
KGRY 142100Z AUTO 28010KT 10SM FEW035 SCT047 23/14 A2997 RMK A01
KGRY 142040Z AUTO 27007G13KT 210V360 10SM FEW036 SCT043 SCT050 23/14 A2998 RMK A01
KGRY 142020Z AUTO 25007KT 220V300 10SM FEW035 23/14 A2997 RMK A01
KGRY 142000Z AUTO VRB05G13KT 10SM FEW036 FEW050 SCT055 23/14 A2997 RMK A01
KGRY 141940Z AUTO VRB08G13KT 10SM SCT034 BKN055 23/14 A2998 RMK A01
KGRY 141920Z AUTO VRB06G12KT 10SM SCT034 SCT041 SCT050 22/14 A2998 RMK A01
KGRY 141900Z AUTO VRB05G11KT 10SM FEW033 23/14 A2999 RMK A01
KGRY 141840Z AUTO VRB05G11KT 10SM FEW034 23/14 A2999 RMK A01
KGRY 141820Z AUTO VRB06G11KT 10SM SCT036 SCT043 SCT049 23/14 A3000 RMK A01
KGRY 141800Z AUTO VRB04G11KT 10SM BKN036 BKN046 BKN050 23/14 A3001 RMK A01
KGRY 141740Z AUTO VRB06KT 10SM FEW036 SCT046 SCT055 23/13 A3002 RMK A01
KGRY 141720Z AUTO VRB06KT 10SM FEW037 SCT048 22/13 A3001 RMK A01
KGRY 141700Z AUTO VRB04KT 10SM FEW037 SCT050 23/14 A3003 RMK A01
KGRY 141640Z AUTO VRB04KT 10SM SCT038 23/13 A3004 RMK A01
KGRY 141620Z AUTO 00000KT 10SM FEW035 FEW042 FEW055 22/13 A3004 RMK A01
KGRY 141600Z AUTO VRB03G24KT 10SM FEW035 FEW040 SCT055 23/13 A3004 RMK A01
KGRY 141540Z AUTO VRB05KT 10SM SCT050 22/13 A3004 RMK A01
KGRY 141520Z AUTO 27008KT 230V320 10SM FEW050 23/13 A3005 RMK A01
KGRY 141500Z AUTO VRB05KT 10SM CLR 22/13 A3003 RMK A01
KGRY 141440Z AUTO VRB03G11KT 10SM CLR 22/12 A3002 RMK A01
KGRY 141420Z AUTO 27007KT 10SM FEW037 22/12 A3002 RMK A01
KGRY 141400Z AUTO 28007KT 240V320 10SM FEW037 22/12 A3002 RMK A01
KGRY 141340Z AUTO VRB06G12KT 10SM CLR 22/12 A3000 RMK A01
KGRY 141320Z AUTO 28006KT 10SM FEW038 FEW044 FEW055 22/12 A2999 RMK A01
KGRY 141300Z AUTO VRB03G27KT 10SM SCT038 BKN050 21/13 A2999 RMK A01
KGRY 141240Z AUTO VRB06G12KT 10SM SCT037 BKN047 21/13 A3000 RMK A01
KGRY 141220Z AUTO 28010KT 260V340 10SM BKN038 OVC049 21/12 A2999 RMK A01
KGRY 141200Z AUTO VRB06G11KT 10SM FEW040 BKN050 21/12 A3000 RMK A01
KGRY 141140Z AUTO VRB06G13KT 10SM BKN048 21/11 A2998 RMK A01
KGRY 141120Z AUTO VRB03G11KT 10SM OVC050 21/11 A2998 RMK A01
KGRY 141100Z AUTO VRB05G12KT 10SM FEW038 BKN049 21/11 A2997 RMK A01
KGRY 141040Z AUTO VRB05G13KT 10SM SCT037 BKN047 21/11 A2997 RMK A01
KGRY 141020Z AUTO VRB03G13KT 10SM SCT039 OVC048 21/12 A2998 RMK A01
KGRY 141000Z AUTO 27006KT 10SM OVC048 20/11 A2996 RMK A01
KGRY 140940Z AUTO VRB06KT 260V320 10SM FEW040 BKN049 20/11 A2998 RMK A01
KGRY 140920Z AUTO VRB05G12KT 10SM SCT041 BKN048 21/10 A2998 RMK A01
KGRY 140900Z AUTO 28009G15KT 260V320 10SM SCT042 SCT050 20/10 A2999 RMK A01
KGRY 140840Z AUTO VRB05G12KT 10SM BKN043 20/11 A2998 RMK A01
KGRY 140820Z AUTO 27008G13KT 230V300 10SM BKN042 20/10 A2998 RMK A01
KGRY 140800Z AUTO VRB05G14KT 10SM BKN041 20/11 A2999 RMK A01
KGRY 140740Z AUTO 25007G12KT 200V310 10SM BKN042 19/10 A2998 RMK A01
KGRY 140720Z AUTO 27009KT 10SM OVC042 20/11 A2999 RMK A01
KGRY 140700Z AUTO 22008KT 190V270 10SM BKN042 19/11 A2999 RMK A01
KGRY 140640Z AUTO VRB07G12KT 130V280 10SM BKN041 19/10 A3000 RMK A01
KGRY 140620Z AUTO VRB05G11KT 10SM OVC040 19/11 A3000 RMK A01
KGRY 140600Z AUTO VRB05G13KT 10SM BKN038 19/11 A3000 RMK A01
KGRY 140540Z AUTO VRB07G12KT 10SM BKN037 19/11 A3001 RMK A01
KGRY 140520Z AUTO VRB03KT 10SM OVC037 19/10 A3002 RMK A01
KGRY 140500Z AUTO VRB06G13KT 10SM OVC037 19/10 A3002 RMK A01
KGRY 140440Z AUTO 24008G13KT 230V290 10SM BKN037 19/11 A3002 RMK A01
KGRY 140420Z AUTO VRB05G12KT 10SM BKN037 19/10 A3004 RMK A01
KGRY 140400Z AUTO VRB04G10KT 10SM BKN034 19/10 A3003 RMK A01
KGRY 140340Z AUTO VRB04G11KT 10SM BKN035 19/11 A3003 RMK A01
KGRY 140320Z AUTO 23009KT 210V280 10SM SCT034 18/10 A3004 RMK A01
KGRY 140300Z AUTO VRB06G12KT 10SM SCT033 19/10 A3004 RMK A01
KGRY 140240Z AUTO 00000G11KT 10SM BKN034 19/10 A3004 RMK A01
KGRY 140220Z AUTO VRB05G13KT 10SM BKN036 19/10 A3006 RMK A01
KGRY 140200Z AUTO 23008G13KT 150V310 10SM BKN037 19/10 A3006 RMK A01
KGRY 140140Z AUTO 27007G13KT 220V310 10SM BKN037 18/10 A3006 RMK A01
KGRY 140120Z AUTO 26007G13KT 220V310 10SM BKN037 19/10 A3006 RMK A01
KGRY 140100Z AUTO VRB05G12KT 10SM BKN037 19/10 A3006 RMK A01
KGRY 140040Z AUTO VRB06KT 10SM BKN037 19/10 A3006 RMK A01
KGRY 140020Z AUTO 24008KT 200V300 10SM BKN036 BKN041 19/10 A3005 RMK A01
KGRY 140000Z AUTO 22009KT 10SM OVC037 19/10 A3005 RMK A01
KGRY 132340Z AUTO VRB06KT 10SM BKN038 19/10 A3005 RMK A01
KGRY 132320Z AUTO 27006KT 10SM BKN039 19/10 A3006 RMK A01
KGRY 132300Z AUTO 27009KT 250V340 10SM SCT039 19/10 A3007 RMK A01
KGRY 132240Z AUTO VRB05G10KT 10SM FEW037 19/10 A3007 RMK A01
KGRY 132220Z AUTO VRB05KT 10SM SCT036 19/10 A3007 RMK A01
KGRY 132200Z AUTO 00000G10KT 10SM SCT038 19/10 A3007 RMK A01
KGRY 132140Z AUTO VRB04G10KT 10SM BKN038 19/10 A3007 RMK A01
KGRY 132120Z AUTO VRB04KT 10SM BKN038 19/10 A3008 RMK A01
KGRY 132100Z AUTO VRB04KT 10SM FEW041 19/10 A3009 RMK A01
KGRY 132040Z AUTO VRB06KT 10SM FEW041 19/10 A3009 RMK A01
KGRY 132020Z AUTO VRB05KT 10SM BKN040 19/09 A3010 RMK A01
KGRY 132000Z AUTO 27007KT 10SM BKN038 19/10 A3010 RMK A01
KGRY 131940Z AUTO VRB04KT 10SM SCT034 BKN040 19/10 A3010 RMK A01
KGRY 131920Z AUTO VRB05G10KT 10SM BKN039 19/10 A3011 RMK A01
KGRY 131900Z AUTO VRB04KT 10SM SCT037 19/09 A3012 RMK A01
KGRY 131840Z AUTO VRB04G28KT 9SM SCT034 20/10 A3013 RMK A01
KGRY 131820Z AUTO 00000KT 10SM SCT035 19/09 A3014 RMK A01
KGRY 131800Z AUTO 21005KT 10SM CLR 19/09 A3015 RMK A01
KGRY 131740Z AUTO 21004KT 10SM CLR 18/09 A3015 RMK A01
KGRY 131720Z AUTO 00000KT 10SM FEW035 19/09 A3016 RMK A01
KGRY 131700Z AUTO 00000KT 10SM CLR 17/09 A3017 RMK A01
KGRY 131640Z AUTO 00000G28KT 10SM CLR 17/09 A3018 RMK A01
KGRY 131620Z AUTO 11003KT 10SM CLR 17/08 A3018 RMK A01
KGRY 131600Z AUTO 00000KT 10SM CLR 17/09 A3019 RMK A01
KGRY 131540Z AUTO 00000KT 10SM CLR 17/08 A3018 RMK A01
KGRY 131520Z AUTO 00000KT 10SM FEW035 17/08 A3019 RMK A01
KGRY 131500Z AUTO 11004KT 10SM CLR 16/08 A3018 RMK A01
KGRY 131440Z AUTO 15003KT 10SM FEW036 17/08 A3018 RMK A01
KGRY 131420Z AUTO VRB03KT 10SM CLR 16/08 A3017 RMK A01
KGRY 131400Z AUTO 07006KT 10SM CLR 16/08 A3017 RMK A01
KGRY 131340Z AUTO 06006KT 10SM SCT036 15/08 A3017 RMK A01
KGRY 131320Z AUTO VRB05KT 10SM CLR 16/08 A3017 RMK A01
KGRY 131300Z AUTO 04006KT 10SM FEW036 15/08 A3017 RMK A01
KGRY 131240Z AUTO 00000KT 10SM SCT035 15/07 A3017 RMK A01